createdAt,value
2023-05-14T00:02:35.722Z,11.00
2023-05-14T00:06:46.390Z,11.00
2023-05-14T00:10:55.812Z,11.10
2023-05-14T00:15:05.349Z,11.10
2023-05-14T00:19:14.734Z,11.20
2023-05-14T00:23:27.486Z,11.20
2023-05-14T00:27:38.011Z,10.90
2023-05-14T00:31:47.047Z,10.90
2023-05-14T00:35:56.212Z,10.80
2023-05-14T00:40:08.914Z,10.90
2023-05-14T00:44:17.931Z,10.90
2023-05-14T00:48:27.561Z,10.90
2023-05-14T00:52:36.778Z,10.90
2023-05-14T00:56:47.755Z,10.70
2023-05-14T01:00:57.215Z,10.60
2023-05-14T01:05:07.279Z,10.40
2023-05-14T01:09:24.179Z,10.40
2023-05-14T01:13:43.258Z,10.40
2023-05-14T01:17:55.764Z,10.50
2023-05-14T01:22:06.859Z,10.50
2023-05-14T01:26:16.032Z,10.40
2023-05-14T01:30:31.330Z,10.20
2023-05-14T01:34:42.645Z,10.20
2023-05-14T01:38:54.341Z,10.10
2023-05-14T01:43:04.433Z,10.00
2023-05-14T01:47:13.515Z,9.90
2023-05-14T01:51:22.616Z,9.90
2023-05-14T01:55:33.360Z,9.90
2023-05-14T01:59:42.520Z,9.90
2023-05-14T02:03:51.801Z,9.80
2023-05-14T02:08:00.856Z,9.90
2023-05-14T02:12:12.700Z,9.90
2023-05-14T02:16:21.823Z,9.90
2023-05-14T02:20:30.883Z,9.90
2023-05-14T02:24:39.993Z,9.90
2023-05-14T02:28:50.684Z,10.00
2023-05-14T02:32:59.955Z,10.10
2023-05-14T02:37:09.230Z,10.10
2023-05-14T02:41:18.321Z,10.10
2023-05-14T02:45:28.877Z,10.10
2023-05-14T02:49:37.970Z,10.10
2023-05-14T02:53:47.078Z,10.00
2023-05-14T02:57:57.082Z,10.10
2023-05-14T03:02:07.981Z,10.10
2023-05-14T03:06:17.584Z,10.00
2023-05-14T03:10:26.983Z,10.00
2023-05-14T03:14:36.280Z,9.90
2023-05-14T03:18:46.895Z,9.80
2023-05-14T03:22:56.427Z,9.90
2023-05-14T03:27:05.818Z,9.90
2023-05-14T03:31:15.063Z,9.90
2023-05-14T03:35:26.221Z,9.80
2023-05-14T03:39:35.455Z,9.80
2023-05-14T03:43:44.534Z,9.70
2023-05-14T03:47:53.878Z,9.60
2023-05-14T03:52:04.557Z,9.40
2023-05-14T03:56:13.860Z,9.40
2023-05-14T04:00:23.174Z,9.30
2023-05-14T04:04:32.708Z,9.30
2023-05-14T04:08:43.372Z,9.30
2023-05-14T04:12:52.524Z,9.30
2023-05-14T04:17:01.633Z,9.20
2023-05-14T04:21:10.753Z,9.20
2023-05-14T04:25:21.653Z,9.30
2023-05-14T04:29:30.732Z,9.20
2023-05-14T04:33:40.268Z,9.10
2023-05-14T04:37:49.426Z,9.00
2023-05-14T04:42:00.257Z,8.90
2023-05-14T04:46:09.806Z,8.90
2023-05-14T04:50:19.093Z,8.80
2023-05-14T04:54:28.292Z,8.80
2023-05-14T04:58:38.894Z,8.80
2023-05-14T05:02:48.186Z,8.80
2023-05-14T05:06:57.260Z,8.90
2023-05-14T05:11:06.846Z,9.00
2023-05-14T05:15:17.456Z,9.00
2023-05-14T05:19:35.800Z,9.00
2023-05-14T05:23:49.117Z,9.00
2023-05-14T05:27:58.209Z,9.00
2023-05-14T05:32:09.621Z,9.10
2023-05-14T05:36:18.734Z,9.10
2023-05-14T05:40:28.086Z,9.10
2023-05-14T05:44:37.222Z,9.10
2023-05-14T05:48:47.863Z,9.10
2023-05-14T05:52:57.095Z,9.20
2023-05-14T05:57:06.684Z,9.30
2023-05-14T06:01:15.726Z,9.40
2023-05-14T06:05:26.563Z,9.60
2023-05-14T06:09:35.731Z,9.70
2023-05-14T06:13:44.782Z,9.80
2023-05-14T06:17:53.931Z,9.90
2023-05-14T06:22:04.481Z,10.10
2023-05-14T06:26:13.519Z,10.20
2023-05-14T06:30:22.984Z,10.30
2023-05-14T06:34:32.774Z,10.40
2023-05-14T06:38:43.354Z,10.50
2023-05-14T06:42:52.447Z,10.60
2023-05-14T06:47:01.709Z,10.60
2023-05-14T06:51:11.459Z,10.80
2023-05-14T06:55:22.254Z,11.00
2023-05-14T06:59:31.394Z,11.10
2023-05-14T07:03:40.486Z,11.30
2023-05-14T07:07:49.736Z,11.40
2023-05-14T07:12:00.390Z,11.50
2023-05-14T07:16:10.731Z,11.60
2023-05-14T07:20:20.230Z,11.70
2023-05-14T07:24:29.425Z,11.90
2023-05-14T07:28:40.040Z,12.00
2023-05-14T07:32:49.202Z,12.20
2023-05-14T07:36:58.418Z,12.40
2023-05-14T07:41:08.404Z,12.50
2023-05-14T07:45:19.181Z,12.60
2023-05-14T07:49:28.312Z,12.80
2023-05-14T07:53:37.413Z,13.00
2023-05-14T07:57:46.531Z,13.20
2023-05-14T08:01:57.218Z,13.40
2023-05-14T08:06:06.732Z,13.60
2023-05-14T08:10:15.761Z,13.90
2023-05-14T08:14:24.886Z,14.20
2023-05-14T08:18:35.742Z,14.60
2023-05-14T08:22:44.970Z,14.90
2023-05-14T08:26:54.013Z,15.10
2023-05-14T08:31:03.213Z,15.20
2023-05-14T08:35:14.213Z,15.40
2023-05-14T08:39:23.290Z,15.70
2023-05-14T08:43:39.417Z,16.00
2023-05-14T08:47:51.456Z,16.30
2023-05-14T08:52:02.301Z,16.60
2023-05-14T08:56:13.122Z,16.70
2023-05-14T09:00:23.690Z,16.90
2023-05-14T09:04:34.078Z,17.30
2023-05-14T09:08:44.996Z,17.60
2023-05-14T09:12:54.244Z,18.00
2023-05-14T09:17:03.454Z,18.30
2023-05-14T09:21:15.030Z,18.50
2023-05-14T09:25:29.134Z,18.70
2023-05-14T09:29:38.436Z,18.90
2023-05-14T09:33:52.555Z,19.20
2023-05-14T09:38:01.543Z,19.40
2023-05-14T09:42:12.296Z,19.60
2023-05-14T09:46:22.126Z,19.70
2023-05-14T09:50:31.495Z,19.90
2023-05-14T09:54:41.823Z,20.10
2023-05-14T09:58:52.375Z,20.20
2023-05-14T10:03:06.858Z,20.40
2023-05-14T10:07:16.223Z,20.40
2023-05-14T10:11:27.734Z,20.40
2023-05-14T10:15:41.894Z,20.00
2023-05-14T10:19:56.073Z,20.00
2023-05-14T10:24:05.784Z,20.10
2023-05-14T10:28:14.894Z,20.20
2023-05-14T10:32:26.716Z,20.40
2023-05-14T10:36:35.992Z,20.50
2023-05-14T10:40:45.162Z,20.50
2023-05-14T10:44:58.751Z,20.40
2023-05-14T10:49:10.741Z,20.40
2023-05-14T10:53:20.529Z,20.40
2023-05-14T10:57:30.951Z,20.60
2023-05-14T11:01:42.823Z,20.30
2023-05-14T11:05:53.781Z,19.90
2023-05-14T11:10:04.983Z,19.90
2023-05-14T11:14:14.662Z,20.20
2023-05-14T11:18:30.407Z,20.40
2023-05-14T11:22:42.215Z,20.50
2023-05-14T11:26:51.596Z,20.70
2023-05-14T11:31:00.740Z,21.00
2023-05-14T11:35:10.593Z,21.30
2023-05-14T11:39:22.085Z,21.50
2023-05-14T11:43:31.323Z,21.60
2023-05-14T11:47:40.517Z,21.70
2023-05-14T11:51:49.896Z,21.80
2023-05-14T11:56:00.488Z,22.00
2023-05-14T12:00:13.752Z,22.10
2023-05-14T12:04:23.303Z,22.20
2023-05-14T12:08:33.571Z,22.10
2023-05-14T12:12:48.658Z,22.10
2023-05-14T12:16:57.726Z,22.10
2023-05-14T12:21:08.728Z,22.20
2023-05-14T12:25:17.915Z,22.20
2023-05-14T12:29:28.603Z,22.20
2023-05-14T12:33:37.702Z,21.80
2023-05-14T12:37:47.156Z,21.60
2023-05-14T12:41:56.271Z,21.60
2023-05-14T12:46:07.119Z,21.60
2023-05-14T12:50:16.776Z,21.50
2023-05-14T12:54:26.194Z,21.50
2023-05-14T12:58:35.305Z,21.60
2023-05-14T13:02:45.979Z,21.70
2023-05-14T13:06:55.016Z,21.80
2023-05-14T13:11:04.171Z,22.00
2023-05-14T13:15:13.812Z,22.00
2023-05-14T13:19:24.644Z,22.00
2023-05-14T13:23:34.134Z,22.10
2023-05-14T13:27:43.221Z,22.20
2023-05-14T13:31:53.310Z,22.20
2023-05-14T13:36:04.405Z,22.10
2023-05-14T13:40:14.490Z,21.90
2023-05-14T13:44:23.578Z,21.90
2023-05-14T13:48:33.025Z,22.10
2023-05-14T13:52:43.661Z,22.20
2023-05-14T13:56:52.987Z,22.30
2023-05-14T14:01:02.209Z,22.30
2023-05-14T14:05:12.050Z,22.30
2023-05-14T14:09:22.839Z,22.20
2023-05-14T14:13:31.934Z,22.10
2023-05-14T14:17:42.074Z,22.00
2023-05-14T14:26:01.880Z,21.90
2023-05-14T14:30:16.917Z,21.90
2023-05-14T14:34:26.108Z,22.00
2023-05-14T14:38:35.214Z,22.10
2023-05-14T14:42:46.540Z,22.20
2023-05-14T14:46:55.810Z,22.10
2023-05-14T14:51:05.879Z,22.10
2023-05-14T14:55:15.232Z,22.20
2023-05-14T14:59:26.020Z,22.20
2023-05-14T15:03:35.458Z,22.10
2023-05-14T15:07:49.834Z,22.20
2023-05-14T15:12:02.059Z,22.20
2023-05-14T15:16:15.898Z,22.20
2023-05-14T15:20:26.653Z,22.20
2023-05-14T15:24:37.500Z,22.20
2023-05-14T15:28:46.965Z,22.20
2023-05-14T15:32:59.019Z,22.20
2023-05-14T15:37:10.623Z,22.30
2023-05-14T15:41:21.633Z,22.30
2023-05-14T15:45:41.680Z,22.40
2023-05-14T15:50:20.605Z,22.30
2023-05-14T15:54:34.537Z,22.10
2023-05-14T15:58:44.134Z,21.90
2023-05-14T16:02:54.255Z,21.80
2023-05-14T16:07:05.485Z,21.60
2023-05-14T16:11:17.085Z,21.50
2023-05-14T16:15:26.988Z,21.40
2023-05-14T16:19:36.615Z,21.10
2023-05-14T16:23:45.804Z,21.00
2023-05-14T16:27:56.898Z,20.80
2023-05-14T16:32:06.546Z,20.80
2023-05-14T16:36:17.375Z,20.80
2023-05-14T16:40:26.812Z,20.80
2023-05-14T16:44:37.776Z,20.90
2023-05-14T16:48:47.084Z,21.10
2023-05-14T16:52:56.441Z,21.10
2023-05-14T16:57:07.239Z,21.10
2023-05-14T17:01:18.799Z,20.90
2023-05-14T17:05:28.784Z,20.80
2023-05-14T17:09:54.298Z,20.70
2023-05-14T17:14:08.602Z,20.50
2023-05-14T17:32:51.324Z,20.50
2023-05-14T17:37:01.840Z,20.40
2023-05-14T17:41:11.408Z,20.50
2023-05-14T17:45:21.046Z,20.30
2023-05-14T17:53:55.546Z,20.20
2023-05-14T17:58:05.129Z,20.10
2023-05-14T18:02:15.350Z,20.00
2023-05-14T18:10:58.015Z,19.70
2023-05-14T18:19:52.314Z,19.50
2023-05-14T18:29:25.795Z,18.60
2023-05-14T18:33:35.358Z,18.40
2023-05-14T18:37:44.568Z,18.10
2023-05-14T18:41:54.348Z,17.90
2023-05-14T18:46:05.093Z,17.60
2023-05-14T18:50:14.421Z,17.60
2023-05-14T18:54:23.641Z,17.50
2023-05-14T18:58:32.868Z,17.30
2023-05-14T19:02:43.548Z,17.00
2023-05-14T19:06:52.790Z,16.80
2023-05-14T19:11:01.792Z,16.70
2023-05-14T19:15:12.064Z,16.60
2023-05-14T19:19:22.708Z,16.50
2023-05-14T19:23:33.133Z,16.30
2023-05-14T19:27:43.862Z,16.20
2023-05-14T19:31:54.345Z,16.10
2023-05-14T19:36:06.429Z,16.00
2023-05-14T19:40:15.682Z,16.00
2023-05-14T19:44:24.899Z,15.90
2023-05-14T19:48:34.320Z,15.80
2023-05-14T19:52:45.785Z,15.60
2023-05-14T19:56:55.052Z,15.50
2023-05-14T20:01:04.769Z,15.40
2023-05-14T20:05:14.433Z,15.30
2023-05-14T20:09:25.475Z,15.20
2023-05-14T20:13:38.546Z,15.10
2023-05-14T20:17:48.128Z,15.10
2023-05-14T20:21:58.157Z,14.80
2023-05-14T20:26:09.101Z,14.80
2023-05-14T20:30:18.673Z,14.80
2023-05-14T20:38:54.879Z,14.70
2023-05-14T20:43:05.802Z,14.60
2023-05-14T20:47:21.340Z,14.60
2023-05-14T20:51:31.548Z,14.60
2023-05-14T20:56:07.578Z,14.60
2023-05-14T21:00:32.222Z,14.60
2023-05-14T21:04:42.889Z,14.60
2023-05-14T21:18:08.252Z,14.40
2023-05-14T21:22:18.276Z,14.30
2023-05-14T21:26:42.341Z,14.30
2023-05-14T21:30:58.933Z,14.30
2023-05-14T21:35:27.627Z,14.20
2023-05-14T21:39:43.677Z,14.20
2023-05-14T21:43:56.942Z,14.10
2023-05-14T21:48:08.868Z,14.10
2023-05-14T21:52:20.741Z,14.10
2023-05-14T21:56:30.327Z,14.00
2023-05-14T22:00:54.944Z,14.00
2023-05-14T22:05:05.992Z,14.00
2023-05-14T22:09:20.722Z,14.00
2023-05-14T22:13:30.621Z,14.00
2023-05-14T22:17:42.732Z,14.00
2023-05-14T22:21:54.415Z,13.90
2023-05-14T22:26:06.567Z,13.90
2023-05-14T22:30:16.735Z,13.90
2023-05-14T22:34:26.465Z,13.80
2023-05-14T22:38:36.108Z,13.80
2023-05-14T22:42:54.725Z,13.80
2023-05-14T22:47:06.214Z,13.80
2023-05-14T22:51:17.499Z,13.90
2023-05-14T22:55:28.257Z,14.00
2023-05-14T22:59:40.134Z,14.00
2023-05-14T23:03:53.041Z,14.00
2023-05-14T23:08:04.939Z,14.00
2023-05-14T23:12:15.892Z,14.00
2023-05-14T23:16:35.541Z,14.10
2023-05-14T23:20:47.895Z,13.90
2023-05-14T23:24:59.396Z,14.00
2023-05-14T23:29:12.655Z,14.00
2023-05-14T23:33:24.917Z,14.00
2023-05-14T23:42:13.885Z,13.90
2023-05-14T23:46:25.733Z,13.80
2023-05-14T23:50:39.242Z,13.70
2023-05-14T23:54:48.902Z,13.70
2023-05-14T23:59:04.090Z,13.70
